Auburn, Mississippi
Current Conditions -  °F | °C
As of 6:53 PM on Saturday 22 Nov 2014 (Local Time) from KMCB Reporting Station
Clear Clear  
Wind Chill: 61°   Ceiling: Unl
Heat Index: 61°   Visibility: 10mi
Dew Point: 53°   Wind: 5mph
Humidity: 75%   Direction: 110°ESE
Pressure: 30.03"   Gusts: NA
Location:  31.3682°N, 90.6714°W
Report Text: KMCB 230053Z AUTO 11004KT 10SM CLR 16/12 A3003 RMK AO2 SLP166 T01610117
Loading
Personal Weather Stations






























Interactive Weather Map New forecast layout! Learn more

10-Day Weather Forecast

Advertisements
Track Severe Weather on mobile